sensor_id;sensor_type;location;lat;lon;timestamp;temperature;humidity
5960;DHT22;3006;50.956;7.002;2023-06-22T00:00:13;24.80;98.90
5960;DHT22;3006;50.956;7.002;2023-06-22T00:02:42;24.70;98.90
5960;DHT22;3006;50.956;7.002;2023-06-22T00:05:10;24.70;99.00
5960;DHT22;3006;50.956;7.002;2023-06-22T00:07:38;24.80;98.90
5960;DHT22;3006;50.956;7.002;2023-06-22T00:10:07;24.80;98.90
5960;DHT22;3006;50.956;7.002;2023-06-22T00:12:37;24.70;98.90
5960;DHT22;3006;50.956;7.002;2023-06-22T00:15:06;24.70;98.90
5960;DHT22;3006;50.956;7.002;2023-06-22T00:17:34;24.60;99.00
5960;DHT22;3006;50.956;7.002;2023-06-22T00:20:02;24.60;99.00
5960;DHT22;3006;50.956;7.002;2023-06-22T00:22:33;24.60;99.00
5960;DHT22;3006;50.956;7.002;2023-06-22T00:25:06;24.60;99.00
5960;DHT22;3006;50.956;7.002;2023-06-22T00:27:37;24.70;99.00
5960;DHT22;3006;50.956;7.002;2023-06-22T00:30:07;24.70;99.00
5960;DHT22;3006;50.956;7.002;2023-06-22T00:32:35;24.70;98.90
5960;DHT22;3006;50.956;7.002;2023-06-22T00:35:04;24.70;98.90
5960;DHT22;3006;50.956;7.002;2023-06-22T00:37:32;24.70;99.00
5960;DHT22;3006;50.956;7.002;2023-06-22T00:40:00;24.70;99.00
5960;DHT22;3006;50.956;7.002;2023-06-22T00:42:30;24.70;99.00
5960;DHT22;3006;50.956;7.002;2023-06-22T00:44:59;24.70;99.00
5960;DHT22;3006;50.956;7.002;2023-06-22T00:47:27;24.70;99.20
5960;DHT22;3006;50.956;7.002;2023-06-22T00:49:56;24.70;98.90
5960;DHT22;3006;50.956;7.002;2023-06-22T00:52:25;24.60;98.90
5960;DHT22;3006;50.956;7.002;2023-06-22T00:54:57;24.60;98.80
5960;DHT22;3006;50.956;7.002;2023-06-22T00:57:28;24.70;98.90
5960;DHT22;3006;50.956;7.002;2023-06-22T00:59:56;24.60;98.80
5960;DHT22;3006;50.956;7.002;2023-06-22T01:02:26;24.70;98.90
5960;DHT22;3006;50.956;7.002;2023-06-22T01:04:57;24.60;98.90
5960;DHT22;3006;50.956;7.002;2023-06-22T01:07:31;24.70;98.80
5960;DHT22;3006;50.956;7.002;2023-06-22T01:10:07;24.70;98.80
5960;DHT22;3006;50.956;7.002;2023-06-22T01:12:42;24.70;98.80
5960;DHT22;3006;50.956;7.002;2023-06-22T01:15:13;24.70;98.70
5960;DHT22;3006;50.956;7.002;2023-06-22T01:17:44;24.70;98.70
5960;DHT22;3006;50.956;7.002;2023-06-22T01:20:14;24.70;98.70
5960;DHT22;3006;50.956;7.002;2023-06-22T01:22:51;24.70;98.70
5960;DHT22;3006;50.956;7.002;2023-06-22T01:25:28;24.70;98.80
5960;DHT22;3006;50.956;7.002;2023-06-22T01:28:05;24.70;98.80
5960;DHT22;3006;50.956;7.002;2023-06-22T01:30:45;24.70;98.90
5960;DHT22;3006;50.956;7.002;2023-06-22T01:33:14;24.70;98.90
5960;DHT22;3006;50.956;7.002;2023-06-22T01:35:44;24.70;98.90
5960;DHT22;3006;50.956;7.002;2023-06-22T01:38:12;24.60;98.90
5960;DHT22;3006;50.956;7.002;2023-06-22T01:40:41;24.60;98.90
5960;DHT22;3006;50.956;7.002;2023-06-22T01:43:09;24.60;99.00
5960;DHT22;3006;50.956;7.002;2023-06-22T01:45:38;24.60;98.90
5960;DHT22;3006;50.956;7.002;2023-06-22T01:48:07;24.50;99.00
5960;DHT22;3006;50.956;7.002;2023-06-22T01:50:36;24.50;99.00
5960;DHT22;3006;50.956;7.002;2023-06-22T01:53:04;24.50;98.90
5960;DHT22;3006;50.956;7.002;2023-06-22T01:55:33;24.50;99.00
5960;DHT22;3006;50.956;7.002;2023-06-22T01:58:01;24.50;98.90
5960;DHT22;3006;50.956;7.002;2023-06-22T02:00:32;24.60;98.90
5960;DHT22;3006;50.956;7.002;2023-06-22T02:03:08;24.60;98.90
5960;DHT22;3006;50.956;7.002;2023-06-22T02:05:43;24.50;98.80
5960;DHT22;3006;50.956;7.002;2023-06-22T02:08:19;24.50;98.80
5960;DHT22;3006;50.956;7.002;2023-06-22T02:10:48;24.50;98.90
5960;DHT22;3006;50.956;7.002;2023-06-22T02:13:17;24.50;98.80
5960;DHT22;3006;50.956;7.002;2023-06-22T02:15:46;24.50;98.80
5960;DHT22;3006;50.956;7.002;2023-06-22T02:18:16;24.50;98.90
5960;DHT22;3006;50.956;7.002;2023-06-22T02:20:44;24.40;98.90
5960;DHT22;3006;50.956;7.002;2023-06-22T02:23:12;24.40;98.90
5960;DHT22;3006;50.956;7.002;2023-06-22T02:25:41;24.40;99.00
5960;DHT22;3006;50.956;7.002;2023-06-22T02:28:11;24.30;99.00
5960;DHT22;3006;50.956;7.002;2023-06-22T02:30:39;24.40;99.10
5960;DHT22;3006;50.956;7.002;2023-06-22T02:33:07;24.40;99.10
5960;DHT22;3006;50.956;7.002;2023-06-22T02:35:37;24.30;99.10
5960;DHT22;3006;50.956;7.002;2023-06-22T02:38:06;24.40;99.20
5960;DHT22;3006;50.956;7.002;2023-06-22T02:40:34;24.30;99.10
5960;DHT22;3006;50.956;7.002;2023-06-22T02:43:02;24.30;99.10
5960;DHT22;3006;50.956;7.002;2023-06-22T02:45:31;24.30;99.20
5960;DHT22;3006;50.956;7.002;2023-06-22T02:47:59;24.20;99.30
5960;DHT22;3006;50.956;7.002;2023-06-22T02:50:28;24.20;99.30
5960;DHT22;3006;50.956;7.002;2023-06-22T02:52:58;24.20;99.30
5960;DHT22;3006;50.956;7.002;2023-06-22T02:55:29;24.30;99.30
5960;DHT22;3006;50.956;7.002;2023-06-22T02:57:58;24.30;99.20
5960;DHT22;3006;50.956;7.002;2023-06-22T03:00:29;24.30;99.20
5960;DHT22;3006;50.956;7.002;2023-06-22T03:02:58;24.20;99.30
5960;DHT22;3006;50.956;7.002;2023-06-22T03:05:27;24.20;99.40
5960;DHT22;3006;50.956;7.002;2023-06-22T03:07:59;24.20;99.40
5960;DHT22;3006;50.956;7.002;2023-06-22T03:10:31;24.20;99.40
5960;DHT22;3006;50.956;7.002;2023-06-22T03:12:59;24.20;99.50
5960;DHT22;3006;50.956;7.002;2023-06-22T03:15:27;24.20;99.50
5960;DHT22;3006;50.956;7.002;2023-06-22T03:17:58;24.20;99.50
5960;DHT22;3006;50.956;7.002;2023-06-22T03:20:27;24.20;99.60
5960;DHT22;3006;50.956;7.002;2023-06-22T03:23:01;24.10;99.80
5960;DHT22;3006;50.956;7.002;2023-06-22T03:25:29;24.10;99.80
5960;DHT22;3006;50.956;7.002;2023-06-22T03:27:57;24.10;99.80
5960;DHT22;3006;50.956;7.002;2023-06-22T03:30:26;24.10;99.80
5960;DHT22;3006;50.956;7.002;2023-06-22T03:32:55;24.10;99.90
5960;DHT22;3006;50.956;7.002;2023-06-22T03:35:23;24.10;99.90
5960;DHT22;3006;50.956;7.002;2023-06-22T03:37:51;24.10;99.90
5960;DHT22;3006;50.956;7.002;2023-06-22T03:40:22;24.10;99.90
5960;DHT22;3006;50.956;7.002;2023-06-22T03:42:51;24.10;99.90
5960;DHT22;3006;50.956;7.002;2023-06-22T03:45:19;24.20;99.90
5960;DHT22;3006;50.956;7.002;2023-06-22T03:47:47;24.10;99.90
5960;DHT22;3006;50.956;7.002;2023-06-22T03:50:15;24.10;99.90
5960;DHT22;3006;50.956;7.002;2023-06-22T03:52:43;24.10;99.90
5960;DHT22;3006;50.956;7.002;2023-06-22T03:55:12;24.10;99.90
5960;DHT22;3006;50.956;7.002;2023-06-22T03:57:41;24.10;99.90
5960;DHT22;3006;50.956;7.002;2023-06-22T04:00:10;24.10;99.90
5960;DHT22;3006;50.956;7.002;2023-06-22T04:02:38;24.10;99.90
5960;DHT22;3006;50.956;7.002;2023-06-22T04:05:08;24.10;99.90
5960;DHT22;3006;50.956;7.002;2023-06-22T04:07:36;24.10;99.90
5960;DHT22;3006;50.956;7.002;2023-06-22T04:10:05;24.10;99.90
5960;DHT22;3006;50.956;7.002;2023-06-22T04:12:35;24.10;99.90
5960;DHT22;3006;50.956;7.002;2023-06-22T04:15:05;24.10;99.90
5960;DHT22;3006;50.956;7.002;2023-06-22T04:17:34;24.10;99.90
5960;DHT22;3006;50.956;7.002;2023-06-22T04:20:02;24.20;99.90
5960;DHT22;3006;50.956;7.002;2023-06-22T04:22:31;24.20;99.90
5960;DHT22;3006;50.956;7.002;2023-06-22T04:25:00;24.10;99.90
5960;DHT22;3006;50.956;7.002;2023-06-22T04:27:28;24.10;99.90
5960;DHT22;3006;50.956;7.002;2023-06-22T04:29:56;24.10;99.90
5960;DHT22;3006;50.956;7.002;2023-06-22T04:32:28;24.00;99.90
5960;DHT22;3006;50.956;7.002;2023-06-22T04:34:56;24.00;99.90
5960;DHT22;3006;50.956;7.002;2023-06-22T04:37:24;23.90;99.90
5960;DHT22;3006;50.956;7.002;2023-06-22T04:39:52;23.90;99.90
5960;DHT22;3006;50.956;7.002;2023-06-22T04:42:21;23.90;99.90
5960;DHT22;3006;50.956;7.002;2023-06-22T04:44:49;23.90;99.90
5960;DHT22;3006;50.956;7.002;2023-06-22T04:47:17;24.00;99.90
5960;DHT22;3006;50.956;7.002;2023-06-22T04:49:46;24.00;99.90
5960;DHT22;3006;50.956;7.002;2023-06-22T04:52:14;24.00;99.90
5960;DHT22;3006;50.956;7.002;2023-06-22T04:54:44;24.00;99.90
5960;DHT22;3006;50.956;7.002;2023-06-22T04:57:22;24.00;99.90
5960;DHT22;3006;50.956;7.002;2023-06-22T04:59:59;24.00;99.90
5960;DHT22;3006;50.956;7.002;2023-06-22T05:02:39;24.00;99.90
5960;DHT22;3006;50.956;7.002;2023-06-22T05:05:09;24.00;99.90
5960;DHT22;3006;50.956;7.002;2023-06-22T05:07:43;24.00;99.90
5960;DHT22;3006;50.956;7.002;2023-06-22T05:10:12;24.00;99.90
5960;DHT22;3006;50.956;7.002;2023-06-22T05:12:40;24.00;99.90
5960;DHT22;3006;50.956;7.002;2023-06-22T05:15:09;24.00;99.90
5960;DHT22;3006;50.956;7.002;2023-06-22T05:17:37;23.90;99.90
5960;DHT22;3006;50.956;7.002;2023-06-22T05:20:12;23.90;99.90
5960;DHT22;3006;50.956;7.002;2023-06-22T05:22:40;24.00;99.90
5960;DHT22;3006;50.956;7.002;2023-06-22T05:25:10;24.00;99.90
5960;DHT22;3006;50.956;7.002;2023-06-22T05:27:39;24.00;99.90
5960;DHT22;3006;50.956;7.002;2023-06-22T05:30:08;24.10;99.90
5960;DHT22;3006;50.956;7.002;2023-06-22T05:32:36;24.10;99.90
5960;DHT22;3006;50.956;7.002;2023-06-22T05:35:05;24.20;99.90
5960;DHT22;3006;50.956;7.002;2023-06-22T05:37:34;24.10;99.90
5960;DHT22;3006;50.956;7.002;2023-06-22T05:40:03;24.20;99.90
5960;DHT22;3006;50.956;7.002;2023-06-22T05:42:32;24.30;99.90
5960;DHT22;3006;50.956;7.002;2023-06-22T05:45:00;24.30;99.90
5960;DHT22;3006;50.956;7.002;2023-06-22T05:47:28;24.30;99.90
5960;DHT22;3006;50.956;7.002;2023-06-22T05:49:56;24.30;99.90
5960;DHT22;3006;50.956;7.002;2023-06-22T05:52:25;24.30;99.90
5960;DHT22;3006;50.956;7.002;2023-06-22T05:54:54;24.40;99.90
5960;DHT22;3006;50.956;7.002;2023-06-22T05:57:22;24.40;99.90
5960;DHT22;3006;50.956;7.002;2023-06-22T05:59:50;24.40;99.90
5960;DHT22;3006;50.956;7.002;2023-06-22T06:02:20;24.50;99.90
5960;DHT22;3006;50.956;7.002;2023-06-22T06:04:51;24.50;99.90
5960;DHT22;3006;50.956;7.002;2023-06-22T06:07:19;24.60;99.90
5960;DHT22;3006;50.956;7.002;2023-06-22T06:09:47;24.70;99.90
5960;DHT22;3006;50.956;7.002;2023-06-22T06:12:17;24.80;99.90
5960;DHT22;3006;50.956;7.002;2023-06-22T06:14:45;24.90;99.90
5960;DHT22;3006;50.956;7.002;2023-06-22T06:17:14;24.90;99.90
5960;DHT22;3006;50.956;7.002;2023-06-22T06:19:42;25.00;99.90
5960;DHT22;3006;50.956;7.002;2023-06-22T06:22:10;25.00;99.90
5960;DHT22;3006;50.956;7.002;2023-06-22T06:24:38;25.00;99.90
5960;DHT22;3006;50.956;7.002;2023-06-22T06:27:06;25.00;99.90
5960;DHT22;3006;50.956;7.002;2023-06-22T06:29:36;25.10;99.90
5960;DHT22;3006;50.956;7.002;2023-06-22T06:32:04;25.10;99.90
5960;DHT22;3006;50.956;7.002;2023-06-22T06:34:32;25.20;99.90
5960;DHT22;3006;50.956;7.002;2023-06-22T06:37:00;25.30;99.90
5960;DHT22;3006;50.956;7.002;2023-06-22T06:39:28;25.30;99.90
5960;DHT22;3006;50.956;7.002;2023-06-22T06:41:56;25.50;99.90
5960;DHT22;3006;50.956;7.002;2023-06-22T06:44:24;25.50;99.90
5960;DHT22;3006;50.956;7.002;2023-06-22T06:46:54;25.60;99.90
5960;DHT22;3006;50.956;7.002;2023-06-22T06:49:22;25.60;99.90
5960;DHT22;3006;50.956;7.002;2023-06-22T06:51:50;25.60;99.90
5960;DHT22;3006;50.956;7.002;2023-06-22T06:54:19;25.60;99.90
5960;DHT22;3006;50.956;7.002;2023-06-22T06:56:47;25.50;99.90
5960;DHT22;3006;50.956;7.002;2023-06-22T06:59:16;25.50;99.90
5960;DHT22;3006;50.956;7.002;2023-06-22T07:01:44;25.30;99.90
5960;DHT22;3006;50.956;7.002;2023-06-22T07:04:14;25.30;99.90
5960;DHT22;3006;50.956;7.002;2023-06-22T07:06:42;25.30;99.90
5960;DHT22;3006;50.956;7.002;2023-06-22T07:09:10;25.30;99.90
5960;DHT22;3006;50.956;7.002;2023-06-22T07:11:38;25.20;99.90
5960;DHT22;3006;50.956;7.002;2023-06-22T07:14:06;25.20;99.90
5960;DHT22;3006;50.956;7.002;2023-06-22T07:16:34;25.30;99.90
5960;DHT22;3006;50.956;7.002;2023-06-22T07:19:02;25.50;99.90
5960;DHT22;3006;50.956;7.002;2023-06-22T07:21:31;25.60;99.90
5960;DHT22;3006;50.956;7.002;2023-06-22T07:23:59;25.50;99.90
5960;DHT22;3006;50.956;7.002;2023-06-22T07:26:28;25.50;99.90
5960;DHT22;3006;50.956;7.002;2023-06-22T07:28:56;25.50;99.90
5960;DHT22;3006;50.956;7.002;2023-06-22T07:31:24;25.40;99.90
5960;DHT22;3006;50.956;7.002;2023-06-22T07:33:52;25.40;99.90
5960;DHT22;3006;50.956;7.002;2023-06-22T07:36:20;25.40;99.90
5960;DHT22;3006;50.956;7.002;2023-06-22T07:38:50;25.50;99.90
5960;DHT22;3006;50.956;7.002;2023-06-22T07:41:19;25.60;99.90
5960;DHT22;3006;50.956;7.002;2023-06-22T07:43:47;25.70;99.90
5960;DHT22;3006;50.956;7.002;2023-06-22T07:46:15;25.70;99.90
5960;DHT22;3006;50.956;7.002;2023-06-22T07:48:44;25.70;99.90
5960;DHT22;3006;50.956;7.002;2023-06-22T07:51:12;25.70;99.90
5960;DHT22;3006;50.956;7.002;2023-06-22T07:53:42;25.80;99.90
5960;DHT22;3006;50.956;7.002;2023-06-22T07:56:12;25.70;99.90
5960;DHT22;3006;50.956;7.002;2023-06-22T07:58:40;25.70;99.90
5960;DHT22;3006;50.956;7.002;2023-06-22T08:01:08;25.70;99.90
5960;DHT22;3006;50.956;7.002;2023-06-22T08:03:37;25.80;99.90
5960;DHT22;3006;50.956;7.002;2023-06-22T08:06:06;26.00;99.90
5960;DHT22;3006;50.956;7.002;2023-06-22T08:08:36;26.00;99.90
5960;DHT22;3006;50.956;7.002;2023-06-22T08:11:04;26.10;99.90
5960;DHT22;3006;50.956;7.002;2023-06-22T08:13:33;26.10;99.90
5960;DHT22;3006;50.956;7.002;2023-06-22T08:16:02;26.00;99.90
5960;DHT22;3006;50.956;7.002;2023-06-22T08:18:30;26.00;99.90
5960;DHT22;3006;50.956;7.002;2023-06-22T08:20:58;26.00;99.90
5960;DHT22;3006;50.956;7.002;2023-06-22T08:23:28;26.00;99.90
5960;DHT22;3006;50.956;7.002;2023-06-22T08:25:56;26.10;99.90
5960;DHT22;3006;50.956;7.002;2023-06-22T08:28:24;26.00;99.90
5960;DHT22;3006;50.956;7.002;2023-06-22T08:30:54;26.10;99.90
5960;DHT22;3006;50.956;7.002;2023-06-22T08:33:22;26.10;99.90
5960;DHT22;3006;50.956;7.002;2023-06-22T08:35:55;26.10;99.90
5960;DHT22;3006;50.956;7.002;2023-06-22T08:38:23;26.20;99.90
5960;DHT22;3006;50.956;7.002;2023-06-22T08:40:51;26.30;99.90
5960;DHT22;3006;50.956;7.002;2023-06-22T08:43:19;26.30;99.90
5960;DHT22;3006;50.956;7.002;2023-06-22T08:45:48;26.40;99.90
5960;DHT22;3006;50.956;7.002;2023-06-22T08:48:17;26.40;99.90
5960;DHT22;3006;50.956;7.002;2023-06-22T08:50:45;26.40;99.90
5960;DHT22;3006;50.956;7.002;2023-06-22T08:53:13;26.40;99.90
5960;DHT22;3006;50.956;7.002;2023-06-22T08:55:41;26.40;99.90
5960;DHT22;3006;50.956;7.002;2023-06-22T08:58:10;26.40;99.90
5960;DHT22;3006;50.956;7.002;2023-06-22T09:00:38;26.50;99.90
5960;DHT22;3006;50.956;7.002;2023-06-22T09:03:06;26.60;99.90
5960;DHT22;3006;50.956;7.002;2023-06-22T09:05:37;26.70;99.90
5960;DHT22;3006;50.956;7.002;2023-06-22T09:08:05;26.70;99.90
5960;DHT22;3006;50.956;7.002;2023-06-22T09:10:33;26.80;99.90
5960;DHT22;3006;50.956;7.002;2023-06-22T09:13:01;26.80;99.90
5960;DHT22;3006;50.956;7.002;2023-06-22T09:15:29;26.80;99.90
5960;DHT22;3006;50.956;7.002;2023-06-22T09:17:58;26.80;99.90
5960;DHT22;3006;50.956;7.002;2023-06-22T09:20:26;26.90;99.90
5960;DHT22;3006;50.956;7.002;2023-06-22T09:22:56;26.90;99.90
5960;DHT22;3006;50.956;7.002;2023-06-22T09:25:25;26.90;99.90
5960;DHT22;3006;50.956;7.002;2023-06-22T09:27:54;26.90;99.90
5960;DHT22;3006;50.956;7.002;2023-06-22T09:30:22;27.00;99.90
5960;DHT22;3006;50.956;7.002;2023-06-22T09:32:50;27.00;99.90
5960;DHT22;3006;50.956;7.002;2023-06-22T09:35:19;27.00;99.90
5960;DHT22;3006;50.956;7.002;2023-06-22T09:37:47;27.10;99.90
5960;DHT22;3006;50.956;7.002;2023-06-22T09:40:16;27.10;99.90
5960;DHT22;3006;50.956;7.002;2023-06-22T09:42:45;27.10;99.90
5960;DHT22;3006;50.956;7.002;2023-06-22T09:45:13;27.20;99.90
5960;DHT22;3006;50.956;7.002;2023-06-22T09:47:41;27.30;99.90
5960;DHT22;3006;50.956;7.002;2023-06-22T09:50:10;27.40;99.90
5960;DHT22;3006;50.956;7.002;2023-06-22T09:52:38;27.50;99.90
5960;DHT22;3006;50.956;7.002;2023-06-22T09:55:14;27.60;99.90
5960;DHT22;3006;50.956;7.002;2023-06-22T09:57:45;27.60;99.90
5960;DHT22;3006;50.956;7.002;2023-06-22T10:00:14;27.60;99.90
5960;DHT22;3006;50.956;7.002;2023-06-22T10:02:43;27.60;99.90
5960;DHT22;3006;50.956;7.002;2023-06-22T10:05:12;27.60;99.90
5960;DHT22;3006;50.956;7.002;2023-06-22T10:07:40;27.50;99.90
5960;DHT22;3006;50.956;7.002;2023-06-22T10:10:11;27.50;99.90
5960;DHT22;3006;50.956;7.002;2023-06-22T10:12:42;27.40;99.90
5960;DHT22;3006;50.956;7.002;2023-06-22T10:15:12;27.40;99.90
5960;DHT22;3006;50.956;7.002;2023-06-22T10:17:41;27.30;99.90
5960;DHT22;3006;50.956;7.002;2023-06-22T10:20:09;27.30;99.90
5960;DHT22;3006;50.956;7.002;2023-06-22T10:22:40;27.30;99.90
5960;DHT22;3006;50.956;7.002;2023-06-22T10:25:08;27.30;99.90
5960;DHT22;3006;50.956;7.002;2023-06-22T10:27:37;27.20;99.90
5960;DHT22;3006;50.956;7.002;2023-06-22T10:30:09;27.10;99.90
5960;DHT22;3006;50.956;7.002;2023-06-22T10:32:41;27.00;99.90
5960;DHT22;3006;50.956;7.002;2023-06-22T10:35:10;27.00;99.90
5960;DHT22;3006;50.956;7.002;2023-06-22T10:37:41;26.90;99.90
5960;DHT22;3006;50.956;7.002;2023-06-22T10:40:11;26.80;99.90
5960;DHT22;3006;50.956;7.002;2023-06-22T10:42:39;26.70;99.90
5960;DHT22;3006;50.956;7.002;2023-06-22T10:45:08;26.50;99.90
5960;DHT22;3006;50.956;7.002;2023-06-22T10:47:37;26.40;99.90
5960;DHT22;3006;50.956;7.002;2023-06-22T10:50:07;26.30;99.90
5960;DHT22;3006;50.956;7.002;2023-06-22T10:52:35;26.10;99.90
5960;DHT22;3006;50.956;7.002;2023-06-22T10:55:04;26.00;99.90
5960;DHT22;3006;50.956;7.002;2023-06-22T10:57:32;25.90;99.90
5960;DHT22;3006;50.956;7.002;2023-06-22T11:00:00;25.80;99.90
5960;DHT22;3006;50.956;7.002;2023-06-22T11:02:31;25.70;99.90
5960;DHT22;3006;50.956;7.002;2023-06-22T11:05:00;25.60;99.90
5960;DHT22;3006;50.956;7.002;2023-06-22T11:07:31;25.50;99.90
5960;DHT22;3006;50.956;7.002;2023-06-22T11:09:59;25.40;99.90
5960;DHT22;3006;50.956;7.002;2023-06-22T11:12:27;25.30;99.90
5960;DHT22;3006;50.956;7.002;2023-06-22T11:14:55;25.20;99.90
5960;DHT22;3006;50.956;7.002;2023-06-22T11:17:24;25.10;99.90
5960;DHT22;3006;50.956;7.002;2023-06-22T11:19:52;25.10;99.90
5960;DHT22;3006;50.956;7.002;2023-06-22T11:22:20;25.20;99.90
5960;DHT22;3006;50.956;7.002;2023-06-22T11:24:49;25.30;99.90
5960;DHT22;3006;50.956;7.002;2023-06-22T11:27:18;25.40;99.90
5960;DHT22;3006;50.956;7.002;2023-06-22T11:29:46;25.50;99.90
5960;DHT22;3006;50.956;7.002;2023-06-22T11:32:14;25.50;99.90
5960;DHT22;3006;50.956;7.002;2023-06-22T11:34:42;25.50;99.90
5960;DHT22;3006;50.956;7.002;2023-06-22T11:37:10;25.50;99.90
5960;DHT22;3006;50.956;7.002;2023-06-22T11:39:38;25.50;99.90
5960;DHT22;3006;50.956;7.002;2023-06-22T11:42:15;25.60;99.90
5960;DHT22;3006;50.956;7.002;2023-06-22T11:44:43;25.60;99.90
5960;DHT22;3006;50.956;7.002;2023-06-22T11:47:11;25.60;99.90
5960;DHT22;3006;50.956;7.002;2023-06-22T11:49:40;25.40;99.90
5960;DHT22;3006;50.956;7.002;2023-06-22T11:52:09;25.40;99.90
5960;DHT22;3006;50.956;7.002;2023-06-22T11:54:37;25.30;99.90
5960;DHT22;3006;50.956;7.002;2023-06-22T11:57:05;25.20;99.90
5960;DHT22;3006;50.956;7.002;2023-06-22T11:59:35;25.10;99.90
5960;DHT22;3006;50.956;7.002;2023-06-22T12:02:03;25.10;99.90
5960;DHT22;3006;50.956;7.002;2023-06-22T12:04:34;25.20;99.90
5960;DHT22;3006;50.956;7.002;2023-06-22T12:07:02;25.30;99.90
5960;DHT22;3006;50.956;7.002;2023-06-22T12:09:30;25.30;99.90
5960;DHT22;3006;50.956;7.002;2023-06-22T12:11:59;25.40;99.90
5960;DHT22;3006;50.956;7.002;2023-06-22T12:14:27;25.60;99.90
5960;DHT22;3006;50.956;7.002;2023-06-22T12:16:59;25.60;99.90
5960;DHT22;3006;50.956;7.002;2023-06-22T12:19:27;25.60;99.90
5960;DHT22;3006;50.956;7.002;2023-06-22T12:21:55;25.50;99.90
5960;DHT22;3006;50.956;7.002;2023-06-22T12:24:23;25.30;99.90
5960;DHT22;3006;50.956;7.002;2023-06-22T12:26:51;25.30;99.90
5960;DHT22;3006;50.956;7.002;2023-06-22T12:29:22;25.20;99.90
5960;DHT22;3006;50.956;7.002;2023-06-22T12:31:50;25.10;99.90
5960;DHT22;3006;50.956;7.002;2023-06-22T12:34:19;25.10;99.90
5960;DHT22;3006;50.956;7.002;2023-06-22T12:36:48;25.20;99.90
5960;DHT22;3006;50.956;7.002;2023-06-22T12:39:16;25.30;99.90
5960;DHT22;3006;50.956;7.002;2023-06-22T12:41:44;25.40;99.90
5960;DHT22;3006;50.956;7.002;2023-06-22T12:44:12;25.70;99.90
5960;DHT22;3006;50.956;7.002;2023-06-22T12:46:41;25.80;99.90
5960;DHT22;3006;50.956;7.002;2023-06-22T12:49:09;25.90;99.90
5960;DHT22;3006;50.956;7.002;2023-06-22T12:51:41;25.90;99.90
5960;DHT22;3006;50.956;7.002;2023-06-22T12:54:10;26.00;99.90
5960;DHT22;3006;50.956;7.002;2023-06-22T12:56:38;26.10;99.90
5960;DHT22;3006;50.956;7.002;2023-06-22T12:59:07;26.20;99.90
5960;DHT22;3006;50.956;7.002;2023-06-22T13:01:35;26.30;99.90
5960;DHT22;3006;50.956;7.002;2023-06-22T13:04:04;26.50;99.90
5960;DHT22;3006;50.956;7.002;2023-06-22T13:06:32;26.70;99.90
5960;DHT22;3006;50.956;7.002;2023-06-22T13:09:01;26.90;99.90
5960;DHT22;3006;50.956;7.002;2023-06-22T13:11:34;27.10;99.90
5960;DHT22;3006;50.956;7.002;2023-06-22T13:14:03;27.20;99.90
5960;DHT22;3006;50.956;7.002;2023-06-22T13:16:32;27.20;99.90
5960;DHT22;3006;50.956;7.002;2023-06-22T13:19:01;27.30;99.90
5960;DHT22;3006;50.956;7.002;2023-06-22T13:21:30;27.30;99.90
5960;DHT22;3006;50.956;7.002;2023-06-22T13:23:58;27.20;99.90
5960;DHT22;3006;50.956;7.002;2023-06-22T13:26:27;27.40;99.90
5960;DHT22;3006;50.956;7.002;2023-06-22T13:28:57;27.40;99.90
5960;DHT22;3006;50.956;7.002;2023-06-22T13:31:25;27.50;99.90
5960;DHT22;3006;50.956;7.002;2023-06-22T13:33:53;27.60;99.90
5960;DHT22;3006;50.956;7.002;2023-06-22T13:36:21;27.70;99.90
5960;DHT22;3006;50.956;7.002;2023-06-22T13:38:50;27.90;99.90
5960;DHT22;3006;50.956;7.002;2023-06-22T13:41:18;28.00;99.90
5960;DHT22;3006;50.956;7.002;2023-06-22T13:43:48;28.00;99.90
5960;DHT22;3006;50.956;7.002;2023-06-22T13:46:16;27.90;99.90
5960;DHT22;3006;50.956;7.002;2023-06-22T13:48:45;27.90;99.90
5960;DHT22;3006;50.956;7.002;2023-06-22T13:51:13;28.00;99.90
5960;DHT22;3006;50.956;7.002;2023-06-22T13:53:41;28.10;99.90
5960;DHT22;3006;50.956;7.002;2023-06-22T13:56:09;28.20;99.90
5960;DHT22;3006;50.956;7.002;2023-06-22T13:58:37;28.30;99.90
5960;DHT22;3006;50.956;7.002;2023-06-22T14:01:06;28.30;99.90
5960;DHT22;3006;50.956;7.002;2023-06-22T14:03:42;28.30;99.90
5960;DHT22;3006;50.956;7.002;2023-06-22T14:06:12;28.20;99.90
5960;DHT22;3006;50.956;7.002;2023-06-22T14:08:40;28.20;99.90
5960;DHT22;3006;50.956;7.002;2023-06-22T14:11:09;28.30;99.90
5960;DHT22;3006;50.956;7.002;2023-06-22T14:13:37;28.60;99.90
5960;DHT22;3006;50.956;7.002;2023-06-22T14:16:07;28.70;99.90
5960;DHT22;3006;50.956;7.002;2023-06-22T14:18:35;28.80;99.90
5960;DHT22;3006;50.956;7.002;2023-06-22T14:21:03;28.60;99.90
5960;DHT22;3006;50.956;7.002;2023-06-22T14:23:31;28.40;99.90
5960;DHT22;3006;50.956;7.002;2023-06-22T14:25:59;28.00;99.90
5960;DHT22;3006;50.956;7.002;2023-06-22T14:28:27;27.80;99.90
5960;DHT22;3006;50.956;7.002;2023-06-22T14:30:56;27.60;99.90
5960;DHT22;3006;50.956;7.002;2023-06-22T14:33:25;27.50;99.90
5960;DHT22;3006;50.956;7.002;2023-06-22T14:35:53;27.50;99.90
5960;DHT22;3006;50.956;7.002;2023-06-22T14:38:21;27.50;99.90
5960;DHT22;3006;50.956;7.002;2023-06-22T14:40:50;27.50;99.90
5960;DHT22;3006;50.956;7.002;2023-06-22T14:43:38;27.40;99.90
5960;DHT22;3006;50.956;7.002;2023-06-22T14:46:06;27.30;99.90
5960;DHT22;3006;50.956;7.002;2023-06-22T14:48:36;27.20;99.90
5960;DHT22;3006;50.956;7.002;2023-06-22T14:51:04;27.00;99.90
5960;DHT22;3006;50.956;7.002;2023-06-22T14:53:32;26.90;99.90
5960;DHT22;3006;50.956;7.002;2023-06-22T14:56:01;26.80;99.90
5960;DHT22;3006;50.956;7.002;2023-06-22T14:58:30;26.80;99.90
5960;DHT22;3006;50.956;7.002;2023-06-22T15:01:00;26.70;99.90
5960;DHT22;3006;50.956;7.002;2023-06-22T15:03:29;26.30;99.90
5960;DHT22;3006;50.956;7.002;2023-06-22T15:06:00;26.10;99.90
5960;DHT22;3006;50.956;7.002;2023-06-22T15:08:29;25.80;99.90
5960;DHT22;3006;50.956;7.002;2023-06-22T15:10:59;25.60;99.90
5960;DHT22;3006;50.956;7.002;2023-06-22T15:13:30;25.40;99.90
5960;DHT22;3006;50.956;7.002;2023-06-22T15:16:00;25.30;99.90
5960;DHT22;3006;50.956;7.002;2023-06-22T15:18:28;25.20;99.90
5960;DHT22;3006;50.956;7.002;2023-06-22T15:20:56;25.00;99.90
5960;DHT22;3006;50.956;7.002;2023-06-22T15:23:27;25.10;99.90
5960;DHT22;3006;50.956;7.002;2023-06-22T15:25:56;25.30;99.90
5960;DHT22;3006;50.956;7.002;2023-06-22T15:28:25;25.50;99.90
5960;DHT22;3006;50.956;7.002;2023-06-22T15:30:53;25.50;99.90
5960;DHT22;3006;50.956;7.002;2023-06-22T15:33:21;25.40;99.90
5960;DHT22;3006;50.956;7.002;2023-06-22T15:35:49;25.30;99.90
5960;DHT22;3006;50.956;7.002;2023-06-22T15:38:17;25.40;99.90
5960;DHT22;3006;50.956;7.002;2023-06-22T15:40:46;25.40;99.90
5960;DHT22;3006;50.956;7.002;2023-06-22T15:43:14;25.60;99.90
5960;DHT22;3006;50.956;7.002;2023-06-22T15:45:43;25.60;99.90
5960;DHT22;3006;50.956;7.002;2023-06-22T15:48:11;25.60;99.90
5960;DHT22;3006;50.956;7.002;2023-06-22T15:50:40;25.60;99.90
5960;DHT22;3006;50.956;7.002;2023-06-22T15:53:08;25.60;99.90
5960;DHT22;3006;50.956;7.002;2023-06-22T15:55:36;25.60;99.90
5960;DHT22;3006;50.956;7.002;2023-06-22T15:58:06;25.60;99.90
5960;DHT22;3006;50.956;7.002;2023-06-22T16:00:35;25.60;99.90
5960;DHT22;3006;50.956;7.002;2023-06-22T16:03:04;25.50;99.90
5960;DHT22;3006;50.956;7.002;2023-06-22T16:05:33;25.50;99.90
5960;DHT22;3006;50.956;7.002;2023-06-22T16:08:01;25.50;99.90
5960;DHT22;3006;50.956;7.002;2023-06-22T16:10:29;25.60;99.90
5960;DHT22;3006;50.956;7.002;2023-06-22T16:12:57;25.40;99.90